Logo AVAMET
Benvolgut visitant, si us plau, ingressa Recuperar contrasenya
AVAMET paisatges

Castelló de Rugat

Dades diàries. Acumulats / Últims 30 dies disponibles

Data Temperatura (°C) Humitat rel. (%) Pressió rel. (hPa) Vent (km/h) Precipitació
Mínima Mitjana Màxima Amplitud
tèrmica
Mínima Mitjana Màxima Mínima Mitjana Màxima Predom. Mitjana Ràfega
màxima
Total
(mm)
Índex-n
Mínima Mitjana Màxima Mínima Mitjana Màxima n
0 a 1
P0 max
mm 5'
Dades mensuals acumulades fins l'últim dia disponible
05/2020 11,1 15,3 18,8 20,0 16,3 25,4 32,2 21,1 26 68 94 1.003 1.016 1.028   5,5 45,1 103,4
Dades anuals acumulades fins l'últim dia disponible
2020 2,8 10,6 18,8 14,6 8,2 19,5 32,2 29,4 16 72 96 1.001 1.020 1.034   4,7 75,6 592,6
Últims 30 dies disponibles
31-05-2020 15,4     20,9     27,8 12,4 42 71 90 1.010 1.013 1.015 SSE 5,5 33,8 0,0
30-05-2020 15,4     20,8     27,3 11,9 45 62 82 1.012 1.014 1.016 NE 7,6 33,8 0,0
29-05-2020 14,7     21,2     27,3 12,6 41 61 84 1.012 1.016 1.021 NE 7,1 33,8 0,0
28-05-2020 15,8     19,3     23,3 7,5 52 77 92 1.020 1.023 1.026 NE 8,9 45,1 0,0
27-05-2020 15,2     19,6     24,6 9,4 48 72 86 1.024 1.025 1.026 NE 7,7 35,4 0,0
26-05-2020 15,3     18,9     23,5 8,2 60 78 92 1.023 1.025 1.027 NE 5,8 32,2 0,4
25-05-2020 15,1     18,5     21,9 6,8 64 80 90 1.023 1.025 1.027 NE 5,0 27,4 0,8
24-05-2020 17,1     19,6     23,1 6,0 68 80 91 1.025 1.026 1.028 NE 8,0 37,0 0,0
23-05-2020 17,3     23,2     29,9 12,6 47 66 84 1.021 1.023 1.025 NE 5,5 27,4 0,0
22-05-2020 18,8     24,3     30,2 11,4 46 61 78 1.020 1.021 1.024 NE 4,8 22,5 0,0
21-05-2020 17,1     23,3     29,6 12,5 45 67 87 1.016 1.018 1.021 NE 4,3 27,4 0,0
20-05-2020 17,2     23,3     29,0 11,8 46 62 85 1.013 1.015 1.017 NE 4,8 24,1 0,0
19-05-2020 15,3     22,7     29,3 14,0 39 58 80 1.014 1.017 1.020 NE 4,7 27,4 0,0
18-05-2020 14,7     20,4     27,2 12,5 41 63 81 1.017 1.020 1.022 NE 4,5 32,2 0,0
17-05-2020 13,4     17,5     22,6 9,2 56 76 90 1.019 1.020 1.022 WSW 3,5 29,0 0,0
16-05-2020 12,3     14,1     16,3 4,0 85 91 94 1.014 1.016 1.020 SW 1,4 32,2 76,2
15-05-2020 13,2     15,5     19,1 5,9 57 73 91 1.010 1.012 1.015 NE 3,5 29,0 1,8
14-05-2020 11,1     15,0     18,9 7,8 59 74 91 1.003 1.005 1.010 SW 3,1 25,7 19,2
13-05-2020 12,3     18,3     24,1 11,8 43 62 90 1.004 1.006 1.007 SW 5,3 24,1 1,0
12-05-2020 15,1     17,9     22,3 7,2 51 67 91 1.006 1.008 1.012 NE 7,7 43,5 2,0
11-05-2020 15,2     19,8     26,2 11,0 36 55 70 1.007 1.008 1.011 SW 5,1 30,6 0,0
10-05-2020 13,4     18,2     23,8 10,4 39 65 91 1.004 1.006 1.009 SW 4,7 32,2 2,0
09-05-2020 14,9     18,8     24,8 9,9 59 79 90 1.007 1.011 1.015 NE 6,8 35,4 0,0
08-05-2020 14,3     17,9     21,7 7,4 65 79 91 1.014 1.016 1.018 NE 6,3 32,2 0,0
07-05-2020 14,8     18,7     23,4 8,6 52 75 93 1.017 1.018 1.019 NE 6,6 37,0 0,0
06-05-2020 16,3     20,9     26,4 10,1 47 68 82 1.014 1.015 1.018 NE 7,1 35,4 0,0
05-05-2020 15,9     22,1     29,3 13,4 40 66 89 1.012 1.013 1.015 NE 3,9 30,6 0,0
04-05-2020 15,4     20,6     26,4 11,0 60 74 87 1.012 1.015 1.017 NE 4,3 24,1 0,0
03-05-2020 18,1     23,4     26,7 8,6 39 55 79 1.015 1.017 1.018 NE 8,0 35,4 0,0
02-05-2020 18,4     24,9     32,2 13,8 26 49 69 1.016 1.018 1.020 SW 3,9 24,1 0,0
Últims 13 mesos disponibles
04/2020 7,9 11,4 15,8 14,5 14,4 18,8 25,8 17,9 50 78 95 1.006 1.016 1.025 NE 5,3 41,8 64,2
03/2020 4,3 9,5 14,3 13,1 8,4 17,4 28,5 24,2 43 72 93 1.007 1.017 1.026 SW 5,4 61,2 122,0
02/2020 4,3 9,9 13,8 14,7 12,6 20,7 26,3 22,0 36 66 91 1.014 1.025 1.032 SW 3,2 45,1 4,8
01/2020 2,8 6,9 12,9 10,4 8,2 15,3 20,2 17,4 52 75 93 1.015 1.025 1.032 SW 3,8 75,6 298,2
12/2019 4,4 9,5 17,0 13,0 10,9 17,4 24,4 20,0 43 71 95 1.002 1.019 1.032 SW 4,4 77,2 181,8
11/2019 4,3 10,4 19,1 14,0 14,3 18,6 25,9 21,6 52 62 78 999 1.011 1.019 SW 4,7 82,1 17,4
10/2019 10,4 15,2 18,8 19,4 14,3 24,6 33,3 22,9 41 66 91 1.008 1.016 1.022 SW 3,3 40,2 49,0
09/2019 12,7 18,7 21,5 22,5 19,4 27,0 33,2 20,5 45 79 96 1.009 1.016 1.023 NE 5,5 78,9 158,8
08/2019 16,9 20,7 25,3 25,5 25,7 31,5 41,5 24,6 18 77 95 1.010 1.014 1.017 S 6,6 48,1 42,1
07/2019 19,3 21,0 24,9 26,1 26,2 31,3 38,4 19,1 9 71 92 978 1.012 1.019 SE 8,6 72,9 0,5
06/2019 11,7 16,7 21,5 22,1 20,0 27,9 34,8 23,1 25 66 92 1.008 1.014 1.019 SE 6,8 40,7 0,0
05/2019 8,5 13,4 19,1 18,1 17,2 23,3 30,6 22,1 49 73 94 1.004 1.013 1.022 SE 6,2 40,7 9,7
04/2019 7,1 10,4 13,4 14,2 11,5 18,8 28,1 21,0 23 75 100 997 1.010 1.021 S 6,4 52,2 316,9
Tots els anys disponibles
2019 -0,3 13,1 25,3 17,5 10,9 22,7 41,5 41,8 9 68 100 978 1.015 1.032 SW 5,6 82,1 847,5
2018 0,6 13,2 24,5 17,4 5,3 22,3 37,0 36,4 17 70 100 989 1.015 1.031 SE 5,0 74,0 662,4
2017 -1,5 13,1 28,7 17,8 4,8 22,4 38,0 39,5 20 68 99 997 1.018 1.032 S 0,1 73,0 540,1
2016 1,3 13,1 25,8 17,7 7,0 22,3 40,4 39,1 17 63 100 995 1.017 1.034 72,0 909,9
2015 2,4 14,4 27,7 19,1 8,7 23,8 42,2 39,8 11 63 97 1.006 1.019 1.033 69,0 411,1
Temperatura (°C)
Humitat relativa (%)
Velocitat del vent i ràfega màxima (km/h)
Direcció del vent (°)
Pressió (hPa)
Precipitació (mm)
Nota sobre les dades: s'avisa a l'usuari de la provisionalitat i no oficialitat d'aquestes dades
Logo AVAMET blanc
Web allotjada a Sollutia
Llicència de Creative CommonsLa web d'AVAMET i els seus continguts estan subjectes a una llicència de
Reconeixement - No Comercial - Compartir igual
Últimes estacions: Xodos - la Vega (Soci), la Vall d'Alba - Centre (Ajuntament soci), Chera (Ajuntament soci) - - -